Time,TemperatureF,DewpointF,PressureIn,WindDirection,WindDirectionDegrees,WindSpeedMPH,WindSpeedGustMPH,Humidity,HourlyPrecipIn,Conditions,Clouds,dailyrainin,SoftwareType,DateUTC
2013-01-24 00:01:00,11.4,0.2,30.04,West,278,9.0,14.0,60,0.00,,---,0.01,VWS V14.01,2013-01-24 05:01:00,
2013-01-24 00:16:00,11.4,-0.1,30.03,WNW,288,11.0,15.0,59,0.00,,---,0.00,VWS V14.01,2013-01-24 05:16:00,
2013-01-24 00:31:00,11.1,0.3,30.03,WNW,290,8.0,14.0,61,0.00,,---,0.00,VWS V14.01,2013-01-24 05:31:00,
2013-01-24 00:46:00,10.8,0.0,30.03,WNW,283,11.0,17.0,61,0.00,,---,0.00,VWS V14.01,2013-01-24 05:46:00,
2013-01-24 01:01:00,10.3,-0.1,30.03,WNW,282,9.0,14.0,62,0.00,,---,0.00,VWS V14.01,2013-01-24 06:01:00,
2013-01-24 01:16:00,10.1,-0.3,30.03,West,277,12.0,13.0,62,0.00,,---,0.00,VWS V14.01,2013-01-24 06:16:00,
2013-01-24 01:31:00,9.6,-1.5,30.03,WNW,295,8.0,14.0,60,0.00,,---,0.00,VWS V14.01,2013-01-24 06:31:00,
2013-01-24 01:46:00,9.4,-1.3,30.03,WNW,296,14.0,14.0,61,0.00,,---,0.00,VWS V14.01,2013-01-24 06:46:00,
2013-01-24 02:01:00,9.4,-0.6,30.04,West,281,4.0,16.0,63,0.00,,---,0.00,VWS V14.01,2013-01-24 07:01:00,
2013-01-24 02:16:00,9.3,-0.7,30.04,WNW,287,7.0,16.0,63,0.00,,---,0.00,VWS V14.01,2013-01-24 07:16:00,
2013-01-24 02:31:00,9.3,-0.7,30.04,WNW,285,6.0,14.0,63,0.00,,---,0.00,VWS V14.01,2013-01-24 07:31:00,
2013-01-24 02:46:00,9.4,-0.6,30.03,NW,324,6.0,18.0,63,0.00,,---,0.00,VWS V14.01,2013-01-24 07:46:00,
2013-01-24 03:01:00,9.2,-0.8,30.03,NW,313,10.0,17.0,63,0.00,,---,0.00,VWS V14.01,2013-01-24 08:01:00,
2013-01-24 03:16:00,9.0,-0.7,30.03,West,267,15.0,15.0,64,0.00,,---,0.00,VWS V14.01,2013-01-24 08:16:00,
2013-01-24 03:31:00,9.1,-0.6,30.02,WNW,292,7.0,15.0,64,0.00,,---,0.00,VWS V14.01,2013-01-24 08:31:00,
2013-01-24 03:46:00,9.1,-0.3,30.02,West,279,9.0,14.0,65,0.00,,---,0.00,VWS V14.01,2013-01-24 08:46:00,
2013-01-24 04:01:00,9.0,0.0,30.01,West,265,7.0,12.0,66,0.00,,---,0.00,VWS V14.01,2013-01-24 09:01:00,
2013-01-24 04:16:00,9.1,0.4,30.01,NW,311,1.0,14.0,67,0.00,,---,0.00,VWS V14.01,2013-01-24 09:16:00,
2013-01-24 04:31:00,9.2,0.8,30.01,NW,325,9.0,12.0,68,0.00,,---,0.00,VWS V14.01,2013-01-24 09:31:00,
2013-01-24 04:46:00,9.5,0.4,30.01,WNW,292,3.0,11.0,66,0.00,,---,0.00,VWS V14.01,2013-01-24 09:46:00,
2013-01-24 05:01:00,9.8,0.7,30.01,WNW,299,8.0,14.0,66,0.00,,---,0.00,VWS V14.01,2013-01-24 10:01:00,
2013-01-24 05:16:00,9.8,0.7,30.01,WNW,290,5.0,15.0,66,0.00,,---,0.00,VWS V14.01,2013-01-24 10:16:00,
2013-01-24 05:31:00,9.8,1.0,30.01,WNW,285,9.0,12.0,67,0.00,,---,0.00,VWS V14.01,2013-01-24 10:31:00,
2013-01-24 05:46:00,9.9,0.5,30.01,NW,309,6.0,18.0,65,0.00,,---,0.00,VWS V14.01,2013-01-24 10:46:00,
2013-01-24 06:01:00,9.5,1.1,30.02,West,278,12.0,13.0,68,0.00,,---,0.00,VWS V14.01,2013-01-24 11:01:00,
2013-01-24 06:16:00,9.3,1.5,30.02,West,275,7.0,14.0,70,0.00,,---,0.00,VWS V14.01,2013-01-24 11:16:00,
2013-01-24 06:31:00,8.9,1.1,30.02,WNW,288,12.0,13.0,70,0.00,,---,0.00,VWS V14.01,2013-01-24 11:31:00,
2013-01-24 06:46:00,9.1,1.6,30.02,WNW,292,10.0,13.0,71,0.00,,---,0.00,VWS V14.01,2013-01-24 11:46:00,
2013-01-24 07:01:00,9.1,1.6,30.03,WNW,284,5.0,14.0,71,0.00,,---,0.00,VWS V14.01,2013-01-24 12:01:00,
2013-01-24 07:16:00,9.4,1.9,30.02,WNW,297,7.0,15.0,71,0.00,,---,0.00,VWS V14.01,2013-01-24 12:16:00,
2013-01-24 07:31:00,9.7,1.9,30.02,WNW,302,3.0,16.0,70,0.00,,---,0.00,VWS V14.01,2013-01-24 12:31:00,
2013-01-24 07:46:00,10.1,2.3,30.03,WNW,297,7.0,16.0,70,0.00,,---,0.00,VWS V14.01,2013-01-24 12:46:00,
2013-01-24 08:01:00,10.2,2.4,30.03,NW,307,13.0,18.0,70,0.00,,---,0.00,VWS V14.01,2013-01-24 13:01:00,
2013-01-24 08:16:00,10.8,3.0,30.02,WNW,296,7.0,19.0,70,0.00,,---,0.00,VWS V14.01,2013-01-24 13:16:00,
2013-01-24 08:31:00,10.6,3.1,30.02,NW,316,12.0,19.0,71,0.00,,---,0.00,VWS V14.01,2013-01-24 13:31:00,
2013-01-24 08:46:00,11.1,3.8,30.02,NNW,336,12.0,22.0,72,0.00,,---,0.00,VWS V14.01,2013-01-24 13:46:00,
2013-01-24 09:01:00,11.8,4.5,30.01,NW,314,7.0,19.0,72,0.00,,---,0.00,VWS V14.01,2013-01-24 14:01:00,
2013-01-24 09:16:00,11.8,4.5,30.02,NNW,334,10.0,19.0,72,0.00,,---,0.00,VWS V14.01,2013-01-24 14:16:00,
2013-01-24 09:31:00,11.9,5.2,30.01,WNW,293,8.0,24.0,74,0.00,,---,0.00,VWS V14.01,2013-01-24 14:31:00,
2013-01-24 09:46:00,13.1,6.4,30.01,NW,325,8.0,18.0,74,0.00,,---,0.00,VWS V14.01,2013-01-24 14:46:00,
2013-01-24 10:01:00,13.1,6.7,30.01,NNW,346,14.0,22.0,75,0.00,,---,0.00,VWS V14.01,2013-01-24 15:01:00,
2013-01-24 10:16:00,14.4,7.6,30.01,WNW,296,8.0,21.0,74,0.00,,---,0.00,VWS V14.01,2013-01-24 15:16:00,
2013-01-24 10:31:00,14.1,7.7,30.00,North,350,7.0,23.0,75,0.00,,---,0.00,VWS V14.01,2013-01-24 15:31:00,
2013-01-24 10:46:00,14.8,7.7,30.00,NW,323,16.0,23.0,73,0.00,,---,0.00,VWS V14.01,2013-01-24 15:46:00,
2013-01-24 11:01:00,15.3,8.2,29.99,NNW,330,9.0,24.0,73,0.00,,---,0.00,VWS V14.01,2013-01-24 16:01:00,
2013-01-24 11:16:00,15.2,7.8,29.98,WNW,302,7.0,28.0,72,0.00,,---,0.00,VWS V14.01,2013-01-24 16:16:00,
2013-01-24 11:31:00,15.5,7.8,29.98,NW,306,15.0,26.0,71,0.00,,---,0.00,VWS V14.01,2013-01-24 16:31:00,
2013-01-24 11:46:00,16.6,8.5,29.98,WNW,302,13.0,25.0,70,0.00,,---,0.00,VWS V14.01,2013-01-24 16:46:00,
2013-01-24 12:01:00,16.5,8.1,29.97,NNW,328,11.0,29.0,69,0.00,,---,0.00,VWS V14.01,2013-01-24 17:01:00,
2013-01-24 12:16:00,17.1,7.7,29.97,WNW,300,17.0,28.0,66,0.00,,---,0.00,VWS V14.01,2013-01-24 17:16:00,
2013-01-24 12:31:00,16.7,5.6,29.97,NW,323,12.0,28.0,61,0.00,,---,0.00,VWS V14.01,2013-01-24 17:31:00,
2013-01-24 12:46:00,16.8,5.0,29.96,North,355,16.0,32.0,59,0.00,,---,0.00,VWS V14.01,2013-01-24 17:46:00,
2013-01-24 13:01:00,16.8,5.0,29.95,NNW,333,13.0,30.0,59,0.00,,---,0.00,VWS V14.01,2013-01-24 18:01:00,
2013-01-24 13:16:00,17.3,4.7,29.96,NNW,328,13.0,25.0,57,0.00,,---,0.00,VWS V14.01,2013-01-24 18:16:00,
2013-01-24 13:31:00,17.4,4.8,29.95,NNW,333,11.0,27.0,57,0.00,,---,0.00,VWS V14.01,2013-01-24 18:31:00,
2013-01-24 13:46:00,18.5,5.8,29.95,NW,319,9.0,26.0,57,0.00,,---,0.00,VWS V14.01,2013-01-24 18:46:00,
2013-01-24 14:01:00,18.1,4.3,29.96,North,355,10.0,30.0,54,0.00,,---,0.00,VWS V14.01,2013-01-24 19:01:00,
2013-01-24 14:16:00,19.1,4.8,29.97,NNW,338,17.0,29.0,53,0.00,,---,0.00,VWS V14.01,2013-01-24 19:16:00,
2013-01-24 14:31:00,19.3,4.6,29.97,WNW,300,11.0,30.0,52,0.00,,---,0.00,VWS V14.01,2013-01-24 19:31:00,
2013-01-24 14:46:00,19.3,3.7,29.96,NNW,333,10.0,30.0,50,0.00,,---,0.00,VWS V14.01,2013-01-24 19:46:00,
2013-01-24 15:01:00,19.4,2.9,29.97,NNW,327,11.0,28.0,48,0.00,,---,0.00,VWS V14.01,2013-01-24 20:01:00,
2013-01-24 15:16:00,19.5,2.1,29.97,WNW,301,19.0,29.0,46,0.00,,---,0.00,VWS V14.01,2013-01-24 20:16:00,
2013-01-24 15:31:00,19.5,1.1,29.97,NNW,327,27.0,29.0,44,0.00,,---,0.00,VWS V14.01,2013-01-24 20:31:00,
2013-01-24 15:46:00,19.8,2.4,29.97,WNW,300,18.0,31.0,46,0.00,,---,0.00,VWS V14.01,2013-01-24 20:46:00,
2013-01-24 16:01:00,19.8,1.9,29.97,NW,306,24.0,26.0,45,0.00,,---,0.00,VWS V14.01,2013-01-24 21:01:00,
2013-01-24 16:16:00,19.9,1.5,29.98,WNW,299,8.0,25.0,44,0.00,,---,0.00,VWS V14.01,2013-01-24 21:16:00,
2013-01-24 16:31:00,19.7,0.3,29.99,NW,304,12.0,25.0,42,0.00,,---,0.00,VWS V14.01,2013-01-24 21:31:00,
2013-01-24 16:46:00,19.2,0.9,30.00,West,265,9.0,23.0,44,0.00,,---,0.00,VWS V14.01,2013-01-24 21:46:00,
2013-01-24 17:01:00,19.1,1.3,30.00,NW,304,19.0,19.0,45,0.00,,---,0.00,VWS V14.01,2013-01-24 22:01:00,
2013-01-24 17:16:00,19.6,0.8,30.01,WNW,289,13.0,23.0,43,0.00,,---,0.00,VWS V14.01,2013-01-24 22:16:00,
2013-01-24 17:31:00,20.2,-1.9,30.01,NNW,331,12.0,30.0,37,0.00,,---,0.00,VWS V14.01,2013-01-24 22:31:00,
2013-01-24 17:46:00,19.7,0.3,30.02,WNW,298,9.0,26.0,42,0.00,,---,0.00,VWS V14.01,2013-01-24 22:46:00,
2013-01-24 18:16:00,19.5,0.2,30.03,WNW,286,12.0,24.0,42,0.00,,---,0.00,VWS V14.01,2013-01-24 23:16:00,
2013-01-24 18:31:00,19.9,-1.6,30.03,WNW,292,14.0,28.0,38,0.00,,---,0.00,VWS V14.01,2013-01-24 23:31:00,
2013-01-24 18:46:00,20.0,-1.0,30.03,WNW,300,17.0,35.0,39,0.00,,---,0.00,VWS V14.01,2013-01-24 23:46:00,
2013-01-24 19:01:00,18.4,0.1,30.04,West,274,14.0,27.0,44,0.00,,---,0.00,VWS V14.01,2013-01-25 00:01:00,
2013-01-24 19:16:00,18.3,0.5,30.04,WNW,300,9.0,20.0,45,0.00,,---,0.00,VWS V14.01,2013-01-25 00:16:00,
2013-01-24 19:31:00,18.5,-0.3,30.04,WNW,289,19.0,23.0,43,0.00,,---,0.00,VWS V14.01,2013-01-25 00:31:00,
2013-01-24 19:46:00,18.4,-0.3,30.04,West,281,12.0,21.0,43,0.00,,---,0.00,VWS V14.01,2013-01-25 00:46:00,
2013-01-24 20:01:00,18.4,-0.9,30.05,NW,304,15.0,23.0,42,0.00,,---,0.00,VWS V14.01,2013-01-25 01:01:00,
2013-01-24 20:16:00,18.4,-1.4,30.05,NW,315,20.0,27.0,41,0.00,,---,0.00,VWS V14.01,2013-01-25 01:16:00,
2013-01-24 20:31:00,18.1,-0.6,30.05,West,281,15.0,30.0,43,0.00,,---,0.00,VWS V14.01,2013-01-25 01:31:00,
2013-01-24 20:46:00,18.0,-0.7,30.06,WNW,292,19.0,29.0,43,0.00,,---,0.00,VWS V14.01,2013-01-25 01:46:00,
2013-01-24 21:01:00,17.9,-1.3,30.06,West,273,11.0,24.0,42,0.00,,---,0.00,VWS V14.01,2013-01-25 02:01:00,
2013-01-24 21:16:00,17.6,-1.1,30.08,WNW,295,13.0,22.0,43,0.00,,---,0.00,VWS V14.01,2013-01-25 02:16:00,
2013-01-24 21:31:00,17.4,-0.8,30.08,West,275,17.0,27.0,44,0.00,,---,0.00,VWS V14.01,2013-01-25 02:31:00,
2013-01-24 21:46:00,17.1,-1.0,30.08,WNW,287,9.0,25.0,44,0.00,,---,0.00,VWS V14.01,2013-01-25 02:46:00,
2013-01-24 22:01:00,16.8,-0.9,30.08,WNW,299,15.0,25.0,45,0.00,,---,0.00,VWS V14.01,2013-01-25 03:01:00,
2013-01-24 22:16:00,16.7,-0.5,30.09,WNW,288,17.0,27.0,46,0.00,,---,0.00,VWS V14.01,2013-01-25 03:16:00,
2013-01-24 22:31:00,16.6,-0.6,30.09,NW,315,10.0,22.0,46,0.00,,---,0.00,VWS V14.01,2013-01-25 03:31:00,
2013-01-24 22:46:00,16.4,-0.3,30.09,WNW,284,14.0,22.0,47,0.00,,---,0.00,VWS V14.01,2013-01-25 03:46:00,
2013-01-24 23:01:00,16.3,0.1,30.09,WNW,292,13.0,23.0,48,0.00,,---,0.00,VWS V14.01,2013-01-25 04:01:00,
2013-01-24 23:16:00,16.0,0.2,30.10,NNW,339,8.0,19.0,49,0.00,,---,0.00,VWS V14.01,2013-01-25 04:16:00,
2013-01-24 23:31:00,15.8,0.5,30.10,NW,304,7.0,19.0,50,0.00,,---,0.00,VWS V14.01,2013-01-25 04:31:00,
2013-01-24 23:46:00,15.6,0.7,30.10,West,281,13.0,21.0,51,0.00,,---,0.00,VWS V14.01,2013-01-25 04:46:00,